Terminal Aerodrome Forecast
Issued by NWS

Current Version | Previous Version | Text Only | Print | Product List | Glossary On
Versions: 1 2 3 4 5 6 7 8 9 10 11 12 13 14 15 16 17 18
011
FTUS46 KEKA 200533
TAFUKI
TAF
KUKI 200533Z 2006/2106 35006KT P6SM BKN060
     FM201000 35004KT 6SM -RA BR SCT015 OVC040
     FM201600 33007KT P6SM SCT025 BKN040
     FM201900 31010G18KT P6SM SCT050=

USA.gov is the U.S. government's official web portal to all federal, state and local government web resources and services.